Time;durP1;ratioP1;P1;durP2;ratioP2;P2;SDS_P1;SDS_P2;PMS_P1;PMS_P2;Temp;Humidity;BMP_temperature;BMP_pressure;BME280_temperature;BME280_humidity;BME280_pressure;Samples;Min_cycle;Max_cycle;Signal;HPM_P1;HPM_P2
2021/06/18 00:01:34;;;;;;;8.50;1.67;;;20.70;99.90;;;;;;1898580;75;21041;-77
2021/06/18 00:04:00;;;;;;;1.35;1.00;;;20.60;99.90;;;;;;1898588;75;21077;-77
2021/06/18 00:06:27;;;;;;;3.27;1.20;;;20.60;99.90;;;;;;1898606;75;21135;-77
2021/06/18 00:08:53;;;;;;;1.80;1.22;;;20.60;99.90;;;;;;1898720;74;21039;-77
2021/06/18 00:11:19;;;;;;;1.98;1.30;;;20.50;99.90;;;;;;1898711;74;21186;-77
2021/06/18 00:13:45;;;;;;;1.25;1.15;;;20.50;99.90;;;;;;1898734;75;21069;-77
2021/06/18 00:16:11;;;;;;;5.42;1.55;;;20.40;99.90;;;;;;1898736;75;21069;-77
2021/06/18 00:18:39;;;;;;;1.22;1.07;;;20.40;99.90;;;;;;1898768;75;21108;-76
2021/06/18 00:21:05;;;;;;;2.05;1.45;;;20.30;99.90;;;;;;1895672;75;21089;-77
2021/06/18 00:23:31;;;;;;;2.05;1.30;;;20.20;99.90;;;;;;1898555;75;21144;-77
2021/06/18 00:25:57;;;;;;;1.30;0.98;;;20.20;99.90;;;;;;1898610;75;21151;-77
2021/06/18 00:28:23;;;;;;;2.47;1.30;;;20.20;99.90;;;;;;1898585;75;21053;-77
2021/06/18 00:30:49;;;;;;;2.10;1.42;;;20.20;99.90;;;;;;1898705;74;21077;-77
2021/06/18 00:33:16;;;;;;;1.30;1.20;;;20.10;99.90;;;;;;1898685;75;21069;-76
2021/06/18 00:35:42;;;;;;;7.30;1.50;;;20.10;99.90;;;;;;1898677;75;21077;-77
2021/06/18 00:38:08;;;;;;;2.33;1.40;;;20.00;99.90;;;;;;1898710;75;21043;-75
2021/06/18 00:40:34;;;;;;;1.30;1.10;;;19.90;99.90;;;;;;1898567;75;21519;-75
2021/06/18 00:43:00;;;;;;;1.98;1.30;;;19.90;99.90;;;;;;1898610;75;21576;-75
2021/06/18 00:45:27;;;;;;;3.22;1.47;;;19.80;99.90;;;;;;1898649;75;21046;-75
2021/06/18 00:47:53;;;;;;;2.30;1.12;;;19.80;99.90;;;;;;1894981;75;21085;-75
2021/06/18 00:50:19;;;;;;;9.53;2.25;;;19.80;99.90;;;;;;1897623;75;21182;-75
2021/06/18 00:52:45;;;;;;;2.00;1.20;;;19.70;99.90;;;;;;1893932;75;21070;-75
2021/06/18 00:55:11;;;;;;;7.08;2.00;;;19.70;99.90;;;;;;1895681;75;21070;-76
2021/06/18 00:57:37;;;;;;;1.82;1.40;;;19.70;99.90;;;;;;1898788;75;21069;-76
2021/06/18 01:00:10;;;;;;;2.35;1.37;;;19.60;99.90;;;;;;1895577;74;21098;-76
2021/06/18 01:02:37;;;;;;;3.10;2.02;;;19.60;99.90;;;;;;1898668;74;21058;-76
2021/06/18 01:05:03;;;;;;;2.77;1.72;;;19.60;99.90;;;;;;1898742;75;21081;-76
2021/06/18 01:07:29;;;;;;;2.05;1.70;;;19.60;99.90;;;;;;1898718;75;21112;-76
2021/06/18 01:09:55;;;;;;;1.37;1.27;;;19.50;99.90;;;;;;1898782;75;21157;-76
2021/06/18 01:12:21;;;;;;;2.45;1.50;;;19.50;99.90;;;;;;1898776;75;21077;-76
2021/06/18 01:14:47;;;;;;;5.17;1.82;;;19.50;99.90;;;;;;1898475;75;21128;-76
2021/06/18 01:17:13;;;;;;;1.30;1.20;;;19.40;99.90;;;;;;1898764;75;21493;-76
2021/06/18 01:19:39;;;;;;;1.90;1.47;;;19.30;99.90;;;;;;1898660;74;21540;-75
2021/06/18 01:22:06;;;;;;;4.60;1.60;;;19.30;99.90;;;;;;1898529;75;21509;-75
2021/06/18 01:24:32;;;;;;;2.22;1.52;;;19.20;99.90;;;;;;1898595;74;21510;-75
2021/06/18 01:26:58;;;;;;;1.40;1.15;;;19.10;99.90;;;;;;1898436;75;21599;-76
2021/06/18 01:29:24;;;;;;;7.97;1.55;;;19.10;99.90;;;;;;1898648;75;21540;-76
2021/06/18 01:31:50;;;;;;;2.45;1.62;;;19.10;99.90;;;;;;1898448;75;21077;-76
2021/06/18 01:34:16;;;;;;;3.22;1.65;;;19.10;99.90;;;;;;1898661;75;21144;-76
2021/06/18 01:36:42;;;;;;;2.05;1.25;;;19.10;99.90;;;;;;1898440;75;21081;-75
2021/06/18 01:39:08;;;;;;;1.57;1.40;;;19.00;99.90;;;;;;1898661;74;21081;-75
2021/06/18 01:41:35;;;;;;;1.57;1.30;;;19.00;99.90;;;;;;1898659;75;21038;-75
2021/06/18 01:44:01;;;;;;;2.50;1.90;;;18.90;99.90;;;;;;1898841;75;21151;-76
2021/06/18 01:46:27;;;;;;;7.67;1.77;;;18.80;99.90;;;;;;1898440;75;21151;-76
2021/06/18 01:48:53;;;;;;;1.70;1.32;;;18.80;99.90;;;;;;1898686;75;21074;-75
2021/06/18 01:51:19;;;;;;;3.25;1.42;;;18.80;99.90;;;;;;1898451;75;21120;-75
2021/06/18 01:53:45;;;;;;;5.87;2.12;;;18.80;99.90;;;;;;1898658;75;21168;-75
2021/06/18 01:56:11;;;;;;;2.92;2.08;;;18.80;99.90;;;;;;1898803;75;21159;-75
2021/06/18 01:58:37;;;;;;;3.65;2.20;;;18.70;99.90;;;;;;1898719;75;21082;-76
2021/06/18 02:01:05;;;;;;;2.70;1.92;;;18.70;99.90;;;;;;1898727;75;21159;-75
2021/06/18 02:03:31;;;;;;;6.87;1.90;;;18.70;99.90;;;;;;1898759;75;21092;-75
2021/06/18 02:05:57;;;;;;;5.25;1.98;;;18.60;99.90;;;;;;1898474;75;21077;-76
2021/06/18 02:08:23;;;;;;;4.87;2.08;;;18.60;99.90;;;;;;1898677;74;21081;-76
2021/06/18 02:10:49;;;;;;;3.62;1.80;;;18.60;99.90;;;;;;1898586;75;21202;-76
2021/06/18 02:13:15;;;;;;;3.05;1.80;;;18.60;99.90;;;;;;1898484;75;21159;-76
2021/06/18 02:15:42;;;;;;;4.47;2.50;;;18.60;99.90;;;;;;1898626;75;21156;-76
2021/06/18 02:18:08;;;;;;;3.65;2.35;;;18.50;99.90;;;;;;1898536;75;21087;-76
2021/06/18 02:20:34;;;;;;;6.78;2.15;;;18.50;99.90;;;;;;1898752;74;21058;-76
2021/06/18 02:23:00;;;;;;;2.20;2.00;;;18.50;99.90;;;;;;1898622;75;21542;-76
2021/06/18 02:25:26;;;;;;;5.35;2.20;;;18.50;99.90;;;;;;1898661;75;21526;-76
2021/06/18 02:27:52;;;;;;;2.60;2.00;;;18.60;99.90;;;;;;1898536;75;21461;-76
2021/06/18 02:30:18;;;;;;;4.10;2.27;;;18.50;99.90;;;;;;1898770;75;21466;-76
2021/06/18 02:32:44;;;;;;;2.83;2.02;;;18.50;99.90;;;;;;1898771;75;21523;-76
2021/06/18 02:35:11;;;;;;;3.67;2.20;;;18.50;99.90;;;;;;1898559;75;21583;-76
2021/06/18 02:37:37;;;;;;;3.08;2.17;;;18.50;99.90;;;;;;1898738;75;21555;-76
2021/06/18 02:40:03;;;;;;;2.55;1.60;;;18.50;99.90;;;;;;1898520;75;21038;-76
2021/06/18 02:42:29;;;;;;;4.17;2.20;;;18.50;99.90;;;;;;1898753;75;21135;-77
2021/06/18 02:44:55;;;;;;;3.25;1.65;;;18.50;99.90;;;;;;1898636;75;21041;-77
2021/06/18 02:47:21;;;;;;;1.98;1.70;;;18.40;99.90;;;;;;1898635;75;21065;-77
2021/06/18 02:49:47;;;;;;;7.12;2.33;;;18.40;99.90;;;;;;1898747;75;21062;-77
2021/06/18 02:52:14;;;;;;;4.08;2.10;;;18.30;99.90;;;;;;1898746;75;21042;-76
2021/06/18 02:54:40;;;;;;;2.45;1.90;;;18.20;99.90;;;;;;1898628;75;21649;-77
2021/06/18 02:57:06;;;;;;;6.03;2.20;;;18.10;99.90;;;;;;1898634;75;21563;-77
2021/06/18 02:59:32;;;;;;;4.12;2.15;;;18.10;99.90;;;;;;1898579;75;21579;-77
2021/06/18 03:01:59;;;;;;;3.83;2.17;;;18.00;99.90;;;;;;1898602;75;21493;-79
2021/06/18 03:04:26;;;;;;;3.58;2.30;;;18.00;99.90;;;;;;1898583;75;21054;-77
2021/06/18 03:06:53;;;;;;;4.03;2.17;;;18.00;99.90;;;;;;1898601;75;21085;-76
2021/06/18 03:09:19;;;;;;;4.90;2.87;;;18.00;99.90;;;;;;1897450;75;21164;-77
2021/06/18 03:11:45;;;;;;;5.78;2.45;;;17.90;99.90;;;;;;1896912;75;21120;-76
2021/06/18 03:14:11;;;;;;;6.47;2.05;;;17.90;99.90;;;;;;1898639;75;21051;-76
2021/06/18 03:16:37;;;;;;;3.90;2.00;;;17.90;99.90;;;;;;1898593;75;21077;-76
2021/06/18 03:19:03;;;;;;;3.15;2.20;;;17.90;99.90;;;;;;1898593;75;21081;-76
2021/06/18 03:21:29;;;;;;;2.37;1.98;;;17.90;99.90;;;;;;1898609;75;21082;-77
2021/06/18 03:23:55;;;;;;;2.50;2.25;;;17.80;99.90;;;;;;1898467;75;21018;-77
2021/06/18 03:26:21;;;;;;;2.05;1.85;;;17.80;99.90;;;;;;1898637;75;21085;-77
2021/06/18 03:28:49;;;;;;;3.87;2.90;;;17.70;99.90;;;;;;1900993;74;21140;-77
2021/06/18 03:31:15;;;;;;;7.28;2.40;;;17.70;99.90;;;;;;1901918;74;21411;-77
2021/06/18 03:33:41;;;;;;;7.28;2.83;;;18.00;99.90;;;;;;1899009;75;21103;-76
2021/06/18 03:36:07;;;;;;;2.85;2.42;;;18.20;99.90;;;;;;1898717;75;21148;-77
2021/06/18 03:38:33;;;;;;;3.35;1.95;;;18.20;99.90;;;;;;1898835;75;21150;-77
2021/06/18 03:40:59;;;;;;;6.22;2.20;;;18.20;99.90;;;;;;1898817;74;21158;-76
2021/06/18 03:43:25;;;;;;;4.47;2.33;;;18.10;99.90;;;;;;1898808;75;21107;-76
2021/06/18 03:45:52;;;;;;;3.00;2.33;;;18.10;99.90;;;;;;1898841;75;21074;-77
2021/06/18 03:48:18;;;;;;;4.45;2.40;;;18.10;99.90;;;;;;1898805;75;21077;-77
2021/06/18 03:50:44;;;;;;;5.90;2.65;;;18.20;99.90;;;;;;1898838;75;21073;-77
2021/06/18 03:53:10;;;;;;;3.85;2.10;;;18.30;99.90;;;;;;1898679;75;21658;-77
2021/06/18 03:55:37;;;;;;;2.83;2.10;;;18.30;99.90;;;;;;1898538;75;21078;-76
2021/06/18 03:58:03;;;;;;;4.05;2.70;;;18.40;99.90;;;;;;1898704;75;21078;-77
2021/06/18 04:00:29;;;;;;;2.58;2.15;;;18.50;99.90;;;;;;1898520;75;21054;-77
2021/06/18 04:02:55;;;;;;;3.98;2.47;;;18.60;99.90;;;;;;1899600;75;21078;-77
2021/06/18 04:05:21;;;;;;;3.95;2.95;;;18.70;99.90;;;;;;1902036;74;21082;-77
2021/06/18 04:07:48;;;;;;;6.22;2.52;;;18.80;99.90;;;;;;1901657;75;21066;-77
2021/06/18 04:10:14;;;;;;;5.97;2.70;;;18.70;99.90;;;;;;1898751;75;21501;-77
2021/06/18 04:12:40;;;;;;;3.17;2.45;;;18.60;99.90;;;;;;1898519;75;21562;-77
2021/06/18 04:15:06;;;;;;;4.28;2.87;;;18.70;99.90;;;;;;1898479;75;21469;-77
2021/06/18 04:17:32;;;;;;;3.27;2.52;;;18.70;99.90;;;;;;1898505;75;21493;-77
2021/06/18 04:20:00;;;;;;;7.85;2.75;;;18.70;99.90;;;;;;1898337;75;21513;-77
2021/06/18 04:22:27;;;;;;;4.67;2.60;;;18.70;99.90;;;;;;1898637;75;21057;-77
2021/06/18 04:24:53;;;;;;;7.22;2.52;;;18.80;99.90;;;;;;1898437;75;21088;-77
2021/06/18 04:27:19;;;;;;;3.70;2.85;;;18.70;99.90;;;;;;1898651;75;21078;-77
2021/06/18 04:29:45;;;;;;;3.40;2.25;;;18.70;99.90;;;;;;1898478;75;21150;-77
2021/06/18 04:32:11;;;;;;;3.95;2.45;;;18.70;99.90;;;;;;1898702;74;21054;-77
2021/06/18 04:34:37;;;;;;;5.00;2.65;;;18.70;99.90;;;;;;1898598;75;21077;-77
2021/06/18 04:37:03;;;;;;;4.62;2.65;;;18.70;99.90;;;;;;1898653;74;21081;-77
2021/06/18 04:39:30;;;;;;;5.85;3.15;;;18.90;99.90;;;;;;1893249;75;21057;-77
2021/06/18 04:41:56;;;;;;;4.97;2.80;;;19.00;99.90;;;;;;1898377;74;21078;-78
2021/06/18 04:44:22;;;;;;;3.50;2.67;;;19.00;99.90;;;;;;1898538;75;21081;-77
2021/06/18 04:46:49;;;;;;;7.08;2.77;;;19.00;99.90;;;;;;1898574;75;21151;-77
2021/06/18 04:49:15;;;;;;;3.77;2.75;;;18.90;99.90;;;;;;1898445;75;21528;-77
2021/06/18 04:51:41;;;;;;;7.92;2.83;;;19.00;99.90;;;;;;1898637;75;21517;-74
2021/06/18 04:54:08;;;;;;;2.92;2.40;;;19.00;99.90;;;;;;1898436;75;21513;-74
2021/06/18 04:56:35;;;;;;;5.20;2.40;;;18.90;99.90;;;;;;1898633;75;21073;-75
2021/06/18 04:59:01;;;;;;;3.98;2.20;;;18.90;99.90;;;;;;1898366;74;21121;-77
2021/06/18 05:01:27;;;;;;;3.77;2.77;;;19.00;99.90;;;;;;1898596;75;21085;-77
2021/06/18 05:03:54;;;;;;;5.37;2.55;;;19.10;99.90;;;;;;1898392;75;21081;-75
2021/06/18 05:06:20;;;;;;;10.20;2.90;;;19.20;99.90;;;;;;1898719;74;21128;-75
2021/06/18 05:08:46;;;;;;;8.10;2.92;;;19.40;99.90;;;;;;1898404;75;21147;-76
2021/06/18 05:11:13;;;;;;;4.80;2.80;;;19.50;99.90;;;;;;1898635;75;21151;-74
2021/06/18 05:13:39;;;;;;;10.23;2.77;;;19.60;99.90;;;;;;1898493;75;21135;-74
2021/06/18 05:16:05;;;;;;;7.15;3.17;;;19.70;99.90;;;;;;1898623;75;21070;-76
2021/06/18 05:18:31;;;;;;;8.15;2.90;;;19.90;99.90;;;;;;1898634;75;21081;-76
2021/06/18 05:20:57;;;;;;;6.10;3.30;;;20.10;99.90;;;;;;1898642;75;21078;-77
2021/06/18 05:23:23;;;;;;;3.55;2.20;;;20.20;99.90;;;;;;1898620;75;21151;-77
2021/06/18 05:25:49;;;;;;;3.77;2.62;;;20.80;99.90;;;;;;1893616;75;21082;-78
2021/06/18 05:28:15;;;;;;;5.25;2.50;;;21.60;99.90;;;;;;1898389;75;21069;-77
2021/06/18 05:30:42;;;;;;;5.72;2.15;;;22.40;99.90;;;;;;1898524;75;21077;-79
2021/06/18 05:33:08;;;;;;;4.50;2.35;;;23.30;99.90;;;;;;1898506;75;21136;-79
2021/06/18 05:35:34;;;;;;;4.80;2.42;;;24.60;99.90;;;;;;1898523;75;21136;-76
2021/06/18 05:38:00;;;;;;;9.08;2.52;;;25.10;99.90;;;;;;1898584;74;21532;-76
2021/06/18 05:40:26;;;;;;;5.92;2.33;;;25.50;99.90;;;;;;1898451;75;21523;-79
2021/06/18 05:42:52;;;;;;;7.08;2.52;;;26.30;99.90;;;;;;1898520;75;21462;-81
2021/06/18 05:45:18;;;;;;;3.10;2.08;;;26.00;99.90;;;;;;1898503;75;21556;-80
2021/06/18 05:47:44;;;;;;;9.45;2.77;;;25.70;99.90;;;;;;1894955;75;21093;-76
2021/06/18 05:50:11;;;;;;;3.58;2.37;;;25.60;99.90;;;;;;1893286;75;21124;-76
2021/06/18 05:52:37;;;;;;;5.47;2.47;;;25.50;99.90;;;;;;1895350;75;21050;-74
2021/06/18 05:55:03;;;;;;;9.55;2.40;;;25.30;99.90;;;;;;1898432;74;21065;-76
2021/06/18 05:57:29;;;;;;;4.67;2.33;;;25.70;99.90;;;;;;1890003;75;21082;-76
2021/06/18 05:59:55;;;;;;;3.75;2.08;;;25.70;99.90;;;;;;1894247;75;21070;-76
2021/06/18 06:02:23;;;;;;;7.20;2.33;;;26.50;99.90;;;;;;1893871;75;21128;-76
2021/06/18 06:04:49;;;;;;;3.95;2.27;;;26.90;99.90;;;;;;1898296;75;21569;-75
2021/06/18 06:07:15;;;;;;;6.97;2.08;;;27.30;99.90;;;;;;1898561;75;21529;-80
2021/06/18 06:09:43;;;;;;;5.72;2.65;;;26.90;99.90;;;;;;1898458;75;21497;-79
2021/06/18 06:12:09;;;;;;;2.17;1.87;;;26.40;99.90;;;;;;1898404;75;21086;-79
2021/06/18 06:14:35;;;;;;;5.92;2.60;;;27.40;99.90;;;;;;1898482;75;21065;-77
2021/06/18 06:17:01;;;;;;;6.00;2.40;;;27.90;99.90;;;;;;1893164;75;21469;-79
2021/06/18 06:19:28;;;;;;;4.33;2.45;;;26.80;99.90;;;;;;1898454;75;21065;-78
2021/06/18 06:21:54;;;;;;;3.75;2.17;;;26.20;99.90;;;;;;1898249;75;21063;-78
2021/06/18 06:24:20;;;;;;;3.77;2.30;;;25.80;99.90;;;;;;1898558;75;21073;-78
2021/06/18 06:26:46;;;;;;;5.08;2.05;;;25.90;99.90;;;;;;1898372;75;21136;-78
2021/06/18 06:29:12;;;;;;;6.20;3.00;;;26.30;99.90;;;;;;1898485;75;21062;-79
2021/06/18 06:31:39;;;;;;;11.57;2.42;;;26.90;99.90;;;;;;1898284;75;21038;-79
2021/06/18 06:34:06;;;;;;;7.62;2.55;;;27.20;99.90;;;;;;1898449;75;21087;-80
2021/06/18 06:36:32;;;;;;;8.70;2.40;;;27.70;99.90;;;;;;1898545;75;21140;-82
2021/06/18 06:38:58;;;;;;;5.20;2.30;;;27.90;99.90;;;;;;1898540;75;21061;-80
2021/06/18 06:41:24;;;;;;;5.10;2.72;;;27.30;99.90;;;;;;1898392;75;21070;-83
2021/06/18 06:43:50;;;;;;;10.98;3.02;;;27.40;99.90;;;;;;1898558;75;21285;-83
2021/06/18 06:46:16;;;;;;;8.18;2.40;;;27.40;99.90;;;;;;1898777;75;21038;-83
2021/06/18 06:48:42;;;;;;;6.15;2.70;;;28.70;99.90;;;;;;1898461;75;21111;-83
2021/06/18 06:51:08;;;;;;;5.70;2.75;;;28.40;99.90;;;;;;1898595;75;21069;-83
2021/06/18 06:53:35;;;;;;;5.47;2.10;;;28.50;99.90;;;;;;1898506;74;21215;-82
2021/06/18 06:56:01;;;;;;;7.03;2.70;;;28.30;99.90;;;;;;1898723;74;21117;-82
2021/06/18 06:58:27;;;;;;;7.42;2.37;;;28.70;99.90;;;;;;1898465;75;21070;-83
2021/06/18 07:00:53;;;;;;;8.73;2.52;;;28.20;99.90;;;;;;1898487;74;21065;-82
2021/06/18 07:03:19;;;;;;;13.62;2.40;;;27.90;99.90;;;;;;1899476;75;21132;-90
2021/06/18 07:05:46;;;;;;;6.10;2.40;;;27.60;99.90;;;;;;1901446;75;21119;-90
2021/06/18 07:08:12;;;;;;;4.40;2.08;;;28.20;99.90;;;;;;1900279;75;21018;-87
2021/06/18 07:10:40;;;;;;;12.03;2.62;;;28.60;99.90;;;;;;1900442;75;21065;-93
2021/06/18 07:13:08;;;;;;;8.48;2.10;;;28.50;99.90;;;;;;1900595;75;21073;-91
2021/06/18 07:15:34;;;;;;;6.97;2.15;;;29.40;99.90;;;;;;1899478;74;21150;-84
2021/06/18 07:18:00;;;;;;;3.92;2.05;;;29.30;99.90;;;;;;1898597;75;21061;-79
2021/06/18 07:20:27;;;;;;;3.83;2.40;;;29.30;99.90;;;;;;1901802;75;21043;-82
2021/06/18 07:22:53;;;;;;;12.15;2.10;;;29.80;99.90;;;;;;1902066;74;21082;-82
2021/06/18 07:25:19;;;;;;;4.33;2.20;;;29.90;99.90;;;;;;1898912;75;21111;-81
2021/06/18 07:27:45;;;;;;;12.37;2.10;;;29.40;99.90;;;;;;1893949;75;21053;-80
2021/06/18 07:30:11;;;;;;;11.68;2.10;;;28.90;99.90;;;;;;1898667;75;21106;-80
2021/06/18 07:32:37;;;;;;;12.28;2.17;;;29.20;99.90;;;;;;1898638;75;21069;-82
2021/06/18 07:35:03;;;;;;;7.30;2.33;;;28.90;99.90;;;;;;1898688;75;21070;-81
2021/06/18 07:37:29;;;;;;;2.55;1.85;;;28.90;99.90;;;;;;1898604;75;21139;-82
2021/06/18 07:39:57;;;;;;;3.10;1.60;;;29.00;99.90;;;;;;1892908;75;21081;-81
2021/06/18 07:42:23;;;;;;;8.48;2.30;;;29.70;99.90;;;;;;1898907;75;21050;-83
2021/06/18 07:44:49;;;;;;;6.83;2.10;;;29.00;99.90;;;;;;1899435;75;21073;-82
2021/06/18 07:47:16;;;;;;;3.40;2.20;;;28.80;99.90;;;;;;1899470;75;21119;-83
2021/06/18 07:49:42;;;;;;;3.65;1.98;;;29.30;99.90;;;;;;1899061;74;21144;-83
2021/06/18 07:52:08;;;;;;;3.33;1.85;;;29.90;99.90;;;;;;1890023;74;21079;-84
2021/06/18 07:54:34;;;;;;;2.85;2.00;;;30.40;99.90;;;;;;1893589;75;21065;-84
2021/06/18 07:57:02;;;;;;;5.75;1.80;;;30.70;99.90;;;;;;1895516;75;21125;-84
2021/06/18 07:59:28;;;;;;;2.75;1.67;;;31.00;99.90;;;;;;1895199;75;21074;-84
2021/06/18 08:01:54;;;;;;;5.72;1.92;;;31.50;99.90;;;;;;1898560;75;21182;-84
2021/06/18 08:04:21;;;;;;;2.27;1.57;;;31.80;99.90;;;;;;1897777;75;21097;-84
2021/06/18 08:06:47;;;;;;;8.70;1.52;;;31.40;99.90;;;;;;1898649;74;21069;-81
2021/06/18 08:09:13;;;;;;;4.58;2.08;;;31.40;99.90;;;;;;1898446;74;21151;-81
2021/06/18 08:11:39;;;;;;;5.78;1.80;;;31.80;99.90;;;;;;1898656;74;21147;-80
2021/06/18 08:14:05;;;;;;;1.70;1.60;;;31.00;99.90;;;;;;1898576;75;21054;-79
2021/06/18 08:16:31;;;;;;;3.60;2.02;;;30.30;99.90;;;;;;1898551;74;21136;-80
2021/06/18 08:18:57;;;;;;;4.67;2.17;;;30.00;99.90;;;;;;1898573;75;21050;-81
2021/06/18 08:21:24;;;;;;;3.87;2.10;;;29.80;99.90;;;;;;1898522;75;21147;-80
2021/06/18 08:23:50;;;;;;;9.03;2.12;;;30.00;99.90;;;;;;1898685;75;21073;-81
2021/06/18 08:26:16;;;;;;;6.45;2.22;;;30.30;99.90;;;;;;1898539;75;21155;-80
2021/06/18 08:28:42;;;;;;;2.92;1.67;;;30.70;99.90;;;;;;1898533;74;21073;-80
2021/06/18 08:31:08;;;;;;;3.95;2.27;;;30.70;99.90;;;;;;1898528;75;21206;-79
2021/06/18 08:33:36;;;;;;;7.10;2.25;;;30.40;99.90;;;;;;1898576;75;21081;-81
2021/06/18 08:36:02;;;;;;;3.42;1.67;;;30.10;99.90;;;;;;1898639;75;21480;-81
2021/06/18 08:38:28;;;;;;;8.20;2.17;;;30.00;99.90;;;;;;1898679;75;21486;-80
2021/06/18 08:40:54;;;;;;;3.52;1.75;;;30.30;99.90;;;;;;1898565;75;21056;-81
2021/06/18 08:43:21;;;;;;;3.67;2.25;;;30.20;99.90;;;;;;1918208;74;21097;-81
2021/06/18 08:45:47;;;;;;;2.98;2.00;;;30.00;99.90;;;;;;1931618;74;21131;-81
2021/06/18 08:48:13;;;;;;;4.10;2.55;;;30.40;99.90;;;;;;1931752;74;21069;-80
2021/06/18 08:50:39;;;;;;;7.33;2.35;;;30.10;99.90;;;;;;1931608;74;21065;-81
2021/06/18 08:53:07;;;;;;;4.83;2.02;;;30.30;99.90;;;;;;1931553;73;21159;-80
2021/06/18 08:55:33;;;;;;;6.78;2.10;;;30.80;99.90;;;;;;1931544;74;21098;-80
2021/06/18 08:57:59;;;;;;;5.50;2.08;;;31.10;99.90;;;;;;1931973;74;21066;-80
2021/06/18 09:00:25;;;;;;;5.08;1.98;;;30.80;99.90;;;;;;1931626;74;21106;-79
2021/06/18 09:02:51;;;;;;;4.72;2.50;;;31.20;99.90;;;;;;1931854;74;21109;-80
2021/06/18 09:05:17;;;;;;;5.03;2.27;;;31.30;99.90;;;;;;1932833;74;21114;-79
2021/06/18 09:07:43;;;;;;;6.97;2.83;;;31.00;99.90;;;;;;1932288;74;21022;-80
2021/06/18 09:10:10;;;;;;;4.10;2.12;;;30.90;99.90;;;;;;1931650;73;21034;-81
2021/06/18 09:12:36;;;;;;;3.45;2.08;;;31.20;99.90;;;;;;1934751;74;21159;-80
2021/06/18 09:15:02;;;;;;;8.55;1.85;;;31.10;99.90;;;;;;1935518;74;21234;-81
2021/06/18 09:17:28;;;;;;;5.80;2.10;;;31.10;99.90;;;;;;1933849;73;21035;-82
2021/06/18 09:19:54;;;;;;;6.50;2.22;;;31.30;99.90;;;;;;1931651;73;21057;-79
2021/06/18 09:22:20;;;;;;;4.90;2.40;;;31.20;99.90;;;;;;1931602;74;21155;-80
2021/06/18 09:24:47;;;;;;;3.20;2.22;;;31.40;99.90;;;;;;1931561;74;21049;-78
2021/06/18 09:27:13;;;;;;;2.80;2.10;;;31.50;99.90;;;;;;1931536;73;21067;-79
2021/06/18 09:29:41;;;;;;;3.77;2.10;;;31.60;99.90;;;;;;1931489;73;21038;-82
2021/06/18 09:32:07;;;;;;;6.85;2.50;;;31.60;99.90;;;;;;1931517;74;21589;-80
2021/06/18 09:34:39;;;;;;;6.47;2.47;;;31.90;99.90;;;;;;1931871;74;21522;-84
2021/06/18 09:37:01;;;;;;;3.58;2.40;;;32.20;99.90;;;;;;1930279;74;21134;-84
2021/06/18 09:39:27;;;;;;;4.42;2.65;;;32.70;99.90;;;;;;1931935;74;21112;-80
2021/06/18 09:41:54;;;;;;;11.18;2.72;;;32.70;99.90;;;;;;1931889;74;21091;-83
2021/06/18 09:44:21;;;;;;;3.98;2.12;;;32.50;99.90;;;;;;1931950;73;21132;-82
2021/06/18 09:46:47;;;;;;;2.45;2.15;;;32.10;99.90;;;;;;1931861;74;21073;-82
2021/06/18 09:49:13;;;;;;;2.40;2.08;;;31.80;99.90;;;;;;1931682;74;21102;-81
2021/06/18 09:51:41;;;;;;;10.15;2.45;;;32.00;99.90;;;;;;1931856;74;21065;-82
2021/06/18 09:54:07;;;;;;;6.22;2.55;;;31.90;99.90;;;;;;1931577;74;21087;-82
2021/06/18 09:56:35;;;;;;;7.17;2.52;;;31.40;99.90;;;;;;1931140;73;21102;-82
2021/06/18 09:59:01;;;;;;;10.30;2.50;;;31.20;99.90;;;;;;1931658;73;21121;-82
2021/06/18 10:01:32;;;;;;;15.48;2.65;;;32.20;99.90;;;;;;1928444;74;21071;-81
2021/06/18 10:03:58;;;;;;;3.52;2.33;;;32.00;99.90;;;;;;1931548;74;21174;-80
2021/06/18 10:06:24;;;;;;;5.58;2.37;;;32.10;99.90;;;;;;1931625;74;21073;-81
2021/06/18 10:08:51;;;;;;;4.28;2.58;;;32.20;99.90;;;;;;1931632;74;21087;-81
2021/06/18 10:11:17;;;;;;;7.85;2.42;;;32.50;99.60;;;;;;1931445;74;21078;-80
2021/06/18 10:13:43;;;;;;;11.93;2.50;;;32.00;99.90;;;;;;1931673;74;21057;-79
2021/06/18 10:16:09;;;;;;;3.87;2.30;;;31.90;99.60;;;;;;1928746;74;21259;-80
2021/06/18 10:18:35;;;;;;;5.80;2.35;;;32.30;98.70;;;;;;1927371;73;21552;-80
2021/06/18 10:21:01;;;;;;;8.38;2.60;;;31.90;98.90;;;;;;1914543;74;21522;-79
2021/06/18 10:23:27;;;;;;;4.58;2.40;;;31.90;99.70;;;;;;1928377;74;21177;-80
2021/06/18 10:25:56;;;;;;;4.55;2.62;;;32.60;99.50;;;;;;1931614;74;21489;-79
2021/06/18 10:28:21;;;;;;;5.20;2.40;;;32.70;97.80;;;;;;1927613;74;21235;-79
2021/06/18 10:30:49;;;;;;;4.12;2.62;;;32.40;98.70;;;;;;1931478;74;21042;-80
2021/06/18 10:33:16;;;;;;;4.42;2.20;;;32.40;97.60;;;;;;1931538;74;21066;-79
2021/06/18 10:35:46;;;;;;;8.00;2.22;;;32.50;97.10;;;;;;1931653;74;21152;-79
2021/06/18 10:38:11;;;;;;;5.62;2.22;;;32.70;97.20;;;;;;1931662;73;21142;-78
2021/06/18 10:40:38;;;;;;;2.10;1.87;;;33.00;96.00;;;;;;1931687;74;21203;-79
2021/06/18 10:43:04;;;;;;;4.45;2.17;;;33.00;96.00;;;;;;1932057;74;21074;-79
2021/06/18 10:45:30;;;;;;;3.47;1.87;;;33.00;95.10;;;;;;1931790;74;21039;-79
2021/06/18 10:47:58;;;;;;;3.12;1.65;;;32.80;94.70;;;;;;1931777;74;21074;-80
2021/06/18 10:50:24;;;;;;;6.05;2.10;;;32.80;93.60;;;;;;1931776;74;21492;-80
2021/06/18 10:52:53;;;;;;;5.65;1.67;;;33.30;93.00;;;;;;1931815;74;21482;-79
2021/06/18 10:55:18;;;;;;;2.60;1.85;;;33.80;91.90;;;;;;1931353;74;21047;-79
2021/06/18 10:57:46;;;;;;;2.75;1.98;;;34.00;90.40;;;;;;1931858;74;21065;-80
2021/06/18 11:00:12;;;;;;;2.37;1.80;;;33.70;90.80;;;;;;1931629;74;21158;-80
2021/06/18 11:02:38;;;;;;;2.17;1.67;;;33.70;90.20;;;;;;1931898;74;21190;-80
2021/06/18 11:05:05;;;;;;;4.45;1.77;;;33.80;90.90;;;;;;1931770;74;21038;-80
2021/06/18 11:07:35;;;;;;;4.12;2.02;;;33.80;90.20;;;;;;1931646;74;21087;-80
2021/06/18 11:10:00;;;;;;;1.70;1.60;;;33.60;87.00;;;;;;1931661;74;21086;-87
2021/06/18 11:12:27;;;;;;;2.25;1.55;;;33.60;86.00;;;;;;1932234;73;21043;-87
2021/06/18 11:14:53;;;;;;;2.90;1.42;;;33.20;83.00;;;;;;1932409;74;21110;-88
2021/06/18 11:17:19;;;;;;;2.10;1.65;;;32.90;83.30;;;;;;1932285;74;21073;-89
2021/06/18 11:19:48;;;;;;;2.47;1.60;;;33.40;83.00;;;;;;1931827;73;21103;-90
2021/06/18 11:22:13;;;;;;;1.80;1.50;;;33.60;81.40;;;;;;1933471;74;21102;-88
2021/06/18 11:24:42;;;;;;;1.50;1.40;;;33.70;79.50;;;;;;1933825;74;21039;-90
2021/06/18 11:27:07;;;;;;;2.60;1.25;;;33.60;76.20;;;;;;1933679;74;21087;-87
2021/06/18 11:29:39;;;;;;;2.98;1.30;;;33.40;71.90;;;;;;1934817;74;21071;-89
2021/06/18 11:32:07;;;;;;;2.15;1.42;;;33.90;77.30;;;;;;1933056;74;21019;-88
2021/06/18 11:34:34;;;;;;;2.52;1.50;;;34.00;74.20;;;;;;1933146;74;21047;-89
2021/06/18 11:37:00;;;;;;;1.72;1.55;;;33.80;75.90;;;;;;1932759;74;21496;-89
2021/06/18 11:39:26;;;;;;;0.90;0.90;;;34.30;73.10;;;;;;1932722;74;21503;-89
2021/06/18 11:41:52;;;;;;;1.67;1.22;;;34.30;65.70;;;;;;1932360;73;21462;-88
2021/06/18 11:44:21;;;;;;;1.42;1.30;;;34.40;65.30;;;;;;1932674;74;21090;-86
2021/06/18 11:46:46;;;;;;;2.08;1.45;;;34.40;67.60;;;;;;1932173;74;21191;-88
2021/06/18 11:49:12;;;;;;;1.72;1.40;;;33.70;68.70;;;;;;1932256;74;21149;-88
2021/06/18 11:51:42;;;;;;;1.87;1.37;;;33.70;69.20;;;;;;1933395;73;21087;-88
2021/06/18 11:54:08;;;;;;;2.22;1.10;;;34.30;68.20;;;;;;1933019;73;21093;-89
2021/06/18 11:56:34;;;;;;;1.67;1.10;;;34.40;59.30;;;;;;1932910;74;21083;-88
2021/06/18 11:59:00;;;;;;;4.12;0.93;;;34.50;57.70;;;;;;1932791;74;21055;-87
2021/06/18 12:01:29;;;;;;;2.90;1.30;;;35.00;56.80;;;;;;1933230;74;21098;-89
2021/06/18 12:03:54;;;;;;;1.42;1.12;;;34.80;55.80;;;;;;1930579;74;21114;-89
2021/06/18 12:06:22;;;;;;;1.30;1.00;;;34.50;55.90;;;;;;1933179;74;21043;-88
2021/06/18 12:08:49;;;;;;;3.10;1.00;;;34.60;55.70;;;;;;1930684;74;21090;-87
2021/06/18 12:11:15;;;;;;;2.33;1.07;;;34.80;54.20;;;;;;1933089;74;21091;-88
2021/06/18 12:13:47;;;;;;;1.45;1.35;;;34.70;55.60;;;;;;1932974;74;21223;-87
2021/06/18 12:16:21;;;;;;;2.47;1.10;;;34.10;55.50;;;;;;1932610;74;21087;-88
2021/06/18 12:18:49;;;;;;;1.10;0.95;;;34.70;55.00;;;;;;1927282;74;21091;-89
2021/06/18 12:21:20;;;;;;;1.22;1.00;;;35.20;54.00;;;;;;1933030;74;21084;-88
2021/06/18 12:23:48;;;;;;;4.70;1.02;;;35.90;52.60;;;;;;1932963;74;21069;-89
2021/06/18 12:26:16;;;;;;;3.42;0.90;;;35.60;51.60;;;;;;1929650;74;21130;-89
2021/06/18 12:28:42;;;;;;;2.77;0.90;;;35.70;51.30;;;;;;1926849;74;21625;-87
2021/06/18 12:31:08;;;;;;;0.93;0.62;;;35.60;50.40;;;;;;1928260;74;21452;-90
2021/06/18 12:33:34;;;;;;;1.02;0.90;;;35.80;50.00;;;;;;1932952;74;21072;-88
2021/06/18 12:36:00;;;;;;;2.67;1.20;;;35.90;49.90;;;;;;1933215;74;21074;-91
2021/06/18 12:38:26;;;;;;;2.45;1.10;;;36.10;49.60;;;;;;1934109;74;21566;-89
2021/06/18 12:40:52;;;;;;;2.12;1.07;;;36.50;50.40;;;;;;1933927;73;21074;-88